Latest Weather Observations for Richmond

IDN60801

Issued at 2:05 am EST Wednesday 1 October 2014 (issued every 30 minutes, with the page automatically refreshed every 10 minutes)

About weather observations | Map of weather stations | Latest weather observations for NSW | Other Formats
Station Details ID: 067105 Name: RICHMOND RAAF Lat: -33.60 Lon: 150.78 Height: 19.0 m
Data from the previous 72 hours. | See also: Recent months at Richmond
Date/Time
EST
Temp
°C
App
Temp
°C
Dew
Point
Rel
Hum
%
Delta-T
°C
Wind Press
QNH
hPa
Press
MSL
hPa
Rain
since 9 am
mm
Dir
 
Spd
km/h
Gust
km/h
Spd
kts
Gust
kts
01/02:00am 23.8 17.1 1.4 23 10.5 SW 26 52 14 28 1008.5 1008.5 0.0
01/01:51am 24.6 16.8 1.5 22 10.9 SW 32 52 17 28 1008.3 1008.3 0.0
01/01:46am 23.8 16.0 2.0 24 10.3 SW 32 43 17 23 1008.4 1008.4 0.0
01/01:30am 21.7 18.3 1.9 27 9.2 SW 9 17 5 9 1007.9 1007.9 0.0
01/01:00am 23.0 19.4 0.8 23 10.2 W 9 17 5 9 1007.5 1007.5 0.0
01/12:30am 25.1 21.1 0.6 20 11.4 W 11 24 6 13 1007.4 1007.4 0.0
01/12:00am 24.7 20.6 2.2 23 10.8 WNW 13 30 7 16 1007.7 1007.7 0.0
 
Date/Time
EST
Temp
°C
App
Temp
°C
Dew
Point
Rel
Hum
%
Delta-T
°C
Wind Press
QNH
hPa
Press
MSL
hPa
Rain
since 9 am
mm
Dir
 
Spd
km/h
Gust
km/h
Spd
kts
Gust
kts
30/11:30pm 24.6 20.4 3.8 26 10.2 W 15 20 8 11 1007.7 1007.7 0.0
30/11:00pm 24.1 19.9 5.5 30 9.4 WNW 17 24 9 13 1007.8 1007.8 0.0
30/10:30pm 21.7 20.0 6.0 36 7.9 ESE 4 7 2 4 1007.9 1007.9 0.0
30/10:00pm 21.2 20.3 5.9 37 7.7 E 0 11 0 6 1007.8 1007.8 0.0
30/09:30pm 23.9 21.1 5.3 30 9.4 NNW 9 13 5 7 1007.6 1007.6 0.0
30/09:00pm 24.9 21.8 5.7 29 9.8 N 11 15 6 8 1007.6 1007.6 0.0
30/08:30pm 25.1 21.5 4.8 27 10.2 NNW 13 19 7 10 1007.6 1007.6 0.0
30/08:00pm 25.9 21.9 4.9 26 10.7 NNW 15 20 8 11 1007.6 1007.6 0.0
30/07:30pm 27.5 23.1 4.5 23 11.7 NNW 17 22 9 12 1007.7 1007.7 0.0
30/07:00pm 27.3 23.2 4.4 23 11.6 NW 15 26 8 14 1007.7 1007.7 0.0
30/06:30pm 29.4 24.2 3.4 19 13.1 NW 20 32 11 17 1007.5 1007.5 0.0
30/06:00pm 30.3 23.4 2.5 17 13.9 NW 28 46 15 25 1007.2 1007.2 0.0
30/05:30pm 31.1 24.7 3.2 17 14.2 NW 26 43 14 23 1007.0 1007.0 0.0
30/05:10pm 31.4 24.1 2.6 16 14.5 NW 30 54 16 29 1007.1 1007.1 0.0
30/05:00pm 31.3 26.1 3.4 17 14.3 NW 20 32 11 17 1007.1 1007.1 0.0
30/04:30pm 32.2 25.0 3.2 16 14.8 WNW 30 43 16 23 1006.9 1006.9 0.0
30/04:00pm 32.2 23.7 3.2 16 14.9 NW 37 57 20 31 1006.9 1006.9 0.0
30/03:31pm 32.9 25.7 2.9 15 15.3 NW 30 54 16 29 1007.0 1007.0 0.0
30/03:30pm 33.0 26.1 4.7 17 14.9 NW 30 43 16 23 1007.1 1007.1 0.0
30/03:11pm 32.9 24.5 3.8 16 15.1 NW 37 59 20 32 1006.9 1006.9 0.0
30/03:00pm 33.3 26.1 5.0 17 15.0 NW 32 46 17 25 1007.2 1007.2 0.0
30/02:30pm 32.6 25.3 4.4 17 14.8 NW 32 48 17 26 1007.7 1007.7 0.0
30/02:00pm 32.7 25.7 6.1 19 14.3 NW 32 50 17 27 1008.0 1008.0 0.0
30/01:58pm 32.6 26.2 5.2 18 14.5 NW 28 48 15 26 1008.0 1008.0 0.0
30/01:46pm 32.2 24.6 5.7 19 14.1 WNW 35 46 19 25 1008.2 1008.2 0.0
30/01:30pm 33.0 23.8 5.5 18 14.7 NNW 43 67 23 36 1008.5 1008.5 0.0
30/01:20pm 33.4 26.2 5.9 18 14.8 NNW 33 72 18 39 1008.6 1008.6 0.0
30/01:19pm 33.4 26.2 5.0 17 15.1 NNW 32 50 17 27 1008.6 1008.6 0.0
30/01:00pm 33.0 25.9 5.5 18 14.7 NNW 32 44 17 24 1008.9 1008.9 0.0
30/12:43pm 33.0 26.5 6.3 19 14.4 NNW 30 48 16 26 1009.1 1009.1 0.0
30/12:30pm 31.6 25.0 5.9 20 13.7 NNW 30 44 16 24 1009.4 1009.4 0.0
30/12:05pm 32.4 26.1 5.8 19 14.2 NNW 28 46 15 25 1010.0 1010.0 0.0
30/12:00pm 32.2 26.2 7.1 21 13.7 NNW 28 43 15 23 1010.2 1010.2 0.0
30/11:30am 29.5 24.3 7.4 25 11.9 N 24 33 13 18 1011.0 1011.0 0.0
30/11:00am 28.9 25.0 9.6 30 10.8 NNE 20 35 11 19 1011.4 1011.4 0.0
30/10:30am 24.5 21.9 12.1 46 7.1 NNE 17 22 9 12 1012.3 1012.3 0.0
30/10:00am 20.9 20.9 14.1 65 3.9 NNE 7 9 4 5 1012.8 1012.8 0.0
30/09:30am 20.2 20.2 13.6 66 3.8 N 6 7 3 4 1013.3 1013.3 0.0
30/09:00am 17.7 17.2 12.6 72 2.8 N 7 11 4 6 1013.5 1013.5 0.0
30/08:30am 18.1 19.0 12.8 71 3.0 CALM 0 0 0 0 1013.6 1013.6 0.0
30/08:00am 17.1 17.8 12.2 73 2.7 CALM 0 6 0 3 1013.6 1013.6 0.0
30/07:30am 14.9 15.5 12.0 83 1.6 CALM 0 0 0 0 1013.4 1013.4 0.0
30/07:00am 14.2 14.6 11.2 82 1.6 CALM 0 0 0 0 1013.3 1013.3 0.0
30/06:30am 13.4 13.9 11.5 88 1.0 CALM 0 0 0 0 1013.3 1013.3 0.0
30/06:00am 12.6 12.7 10.1 85 1.3 W 0 0 0 0 1013.1 1013.1 0.0
30/05:30am 13.1 13.3 10.5 84 1.4 CALM 0 0 0 0 1012.9 1012.9 0.0
30/05:00am 13.2 13.4 10.6 84 1.4 CALM 0 0 0 0 1012.8 1012.8 0.0
30/04:30am 13.3 13.5 10.7 84 1.4 CALM 0 0 0 0 1012.9 1012.9 0.0
30/04:00am 13.1 13.1 11.2 88 1.0 W 2 11 1 6 1012.9 1012.9 0.0
30/03:30am 13.2 13.6 11.3 88 1.0 CALM 0 6 0 3 1013.0 1013.0 0.0
30/03:00am 12.0 11.8 10.6 91 0.7 W 2 9 1 5 1013.2 1013.2 0.0
30/02:30am 11.4 10.8 9.1 86 1.1 WSW 2 9 1 5 1013.2 1013.2 0.0
30/02:00am 12.3 12.3 9.7 84 1.3 CALM 0 0 0 0 1013.4 1013.4 0.0
30/01:30am 12.7 12.9 10.4 86 1.2 CALM 0 0 0 0 1013.7 1013.7 0.0
30/01:00am 13.0 12.9 9.4 79 1.8 CALM 0 0 0 0 1014.0 1014.0 0.0
30/12:30am 13.8 13.9 10.0 78 2.0 CALM 0 0 0 0 1014.1 1014.1 0.0
30/12:00am 13.7 12.4 10.1 79 1.9 ENE 7 13 4 7 1014.2 1014.2 0.0
 
Date/Time
EST
Temp
°C
App
Temp
°C
Dew
Point
Rel
Hum
%
Delta-T
°C
Wind Press
QNH
hPa
Press
MSL
hPa
Rain
since 9 am
mm
Dir
 
Spd
km/h
Gust
km/h
Spd
kts
Gust
kts
29/11:30pm 14.9 15.1 10.5 75 2.3 CALM 0 0 0 0 1014.3 1014.3 0.0
29/11:00pm 14.9 13.7 9.7 71 2.7 ENE 6 9 3 5 1014.4 1014.4 0.0
29/10:30pm 16.6 16.2 11.1 70 3.0 E 4 9 2 5 1014.5 1014.5 0.0
29/10:00pm 17.3 16.4 10.7 65 3.5 E 6 6 3 3 1014.5 1014.5 0.0
29/09:30pm 17.2 17.1 9.4 60 4.1 CALM 0 0 0 0 1014.5 1014.5 0.0
29/09:00pm 18.4 18.2 9.2 55 4.8 CALM 0 0 0 0 1014.5 1014.5 0.0
29/08:30pm 19.8 18.7 10.5 55 5.0 W 7 9 4 5 1014.3 1014.3 0.0
29/08:00pm 20.5 20.4 9.4 49 5.9 CALM 0 0 0 0 1014.2 1014.2 0.0
29/07:30pm 22.2 19.3 8.3 41 7.3 WNW 13 13 7 7 1013.9 1013.9 0.0
29/07:00pm 22.8 21.2 8.9 41 7.4 W 7 9 4 5 1013.4 1013.4 0.0
29/06:30pm 25.2 23.0 7.8 33 9.2 WNW 9 11 5 6 1013.0 1013.0 0.0
29/06:00pm 25.7 23.5 7.8 32 9.5 WNW 9 11 5 6 1012.6 1012.6 0.0
29/05:30pm 28.2 24.6 6.9 26 11.3 W 15 20 8 11 1012.2 1012.2 0.0
29/05:00pm 29.7 25.3 6.4 23 12.4 WSW 19 26 10 14 1011.8 1011.8 0.0
29/04:30pm 30.4 25.8 6.3 22 12.8 WSW 20 28 11 15 1011.5 1011.5 0.0
29/04:00pm 31.0 27.0 6.8 22 13.1 WSW 17 26 9 14 1011.4 1011.4 0.0
29/03:30pm 31.1 25.1 5.5 20 13.5 W 26 37 14 20 1011.2 1011.2 0.0
29/03:00pm 31.3 25.4 5.7 20 13.6 W 26 37 14 20 1011.3 1011.3 0.0
29/02:30pm 31.4 25.2 4.2 18 14.1 W 26 39 14 21 1011.3 1011.3 0.0
29/02:00pm 31.6 27.2 6.6 21 13.5 WSW 19 30 10 16 1011.6 1011.6 0.0
29/01:30pm 30.9 25.4 6.0 21 13.2 W 24 35 13 19 1011.9 1011.9 0.0
29/01:00pm 30.9 24.9 5.3 20 13.5 W 26 35 14 19 1012.2 1012.2 0.0
29/12:30pm 30.9 26.2 5.3 20 13.5 W 19 22 10 12 1012.5 1012.5 0.0
29/12:00pm 30.3 25.4 4.9 20 13.2 WNW 20 32 11 17 1012.8 1012.8 0.0
29/11:30am 30.4 25.8 5.6 21 13.1 W 19 32 10 17 1013.2 1013.2 0.0
29/11:00am 28.0 25.0 7.8 28 10.9 N 13 20 7 11 1013.5 1013.5 0.0
29/10:30am 27.2 24.9 7.6 29 10.5 NNE 9 13 5 7 1013.8 1013.8 0.0
29/10:00am 26.4 24.2 9.3 34 9.4 NNE 11 20 6 11 1014.1 1014.1 0.0
29/09:30am 25.0 21.4 8.5 35 8.9 N 17 22 9 12 1014.4 1014.4 0.0
29/09:00am 24.0 20.6 9.2 39 8.0 N 17 20 9 11 1014.6 1014.6 0.0
29/08:30am 23.2 20.2 9.2 41 7.5 NNE 15 19 8 10 1014.6 1014.6 0.0
29/08:00am 21.3 18.6 8.9 45 6.6 NE 13 17 7 9 1014.3 1014.3 0.0
29/07:30am 19.5 18.2 10.0 54 5.1 NE 7 11 4 6 1014.3 1014.3 0.0
29/07:00am 16.5 15.0 9.0 61 3.9 ESE 7 9 4 5 1014.2 1014.2 0.0
29/06:30am 16.6 14.3 7.5 55 4.6 NNE 9 15 5 8 1014.1 1014.1 0.0
29/06:00am 15.5 13.1 7.0 57 4.2 NNE 9 13 5 7 1014.2 1014.2 0.0
29/05:30am 15.7 11.8 7.0 56 4.3 N 17 24 9 13 1013.9 1013.9 0.0
29/05:00am 14.5 11.7 7.1 61 3.6 NE 11 17 6 9 1013.8 1013.8 0.0
29/04:30am 15.0 11.7 6.6 57 4.1 N 13 20 7 11 1013.5 1013.5 0.0
29/04:00am 13.9 11.9 7.0 63 3.4 NNE 7 13 4 7 1013.6 1013.6 0.0
29/03:30am 13.8 11.8 7.3 65 3.2 N 7 11 4 6 1013.8 1013.8 0.0
29/03:00am 12.9 10.1 8.4 74 2.2 NE 13 17 7 9 1014.0 1014.0 0.0
29/02:30am 12.9 10.1 8.4 74 2.2 NNE 13 15 7 8 1014.4 1014.4 0.0
29/02:00am 13.8 11.3 8.0 68 2.9 NNE 11 13 6 7 1014.6 1014.6 0.0
29/01:30am 13.8 11.5 7.6 66 3.1 NNE 9 11 5 6 1014.9 1014.9 0.0
29/01:00am 14.3 12.1 8.0 66 3.1 N 9 11 5 6 1015.0 1015.0 0.0
29/12:30am 13.8 11.7 8.2 69 2.8 NNE 9 13 5 7 1015.2 1015.2 0.0
29/12:00am 13.5 10.6 9.7 78 1.9 NNE 15 17 8 9 1015.7 1015.7 0.0
 
Date/Time
EST
Temp
°C
App
Temp
°C
Dew
Point
Rel
Hum
%
Delta-T
°C
Wind Press
QNH
hPa
Press
MSL
hPa
Rain
since 9 am
mm
Dir
 
Spd
km/h
Gust
km/h
Spd
kts
Gust
kts
28/11:30pm 12.4 12.3 9.4 82 1.5 CALM 0 0 0 0 1016.2 1016.2 0.0
28/11:00pm 12.4 11.5 9.1 80 1.7 NNW 4 7 2 4 1016.4 1016.4 0.0
28/10:30pm 12.8 12.8 9.8 82 1.5 CALM 0 0 0 0 1016.6 1016.6 0.0
28/10:00pm 14.0 14.2 10.4 79 1.9 CALM 0 0 0 0 1016.6 1016.6 0.0
28/09:30pm 14.6 14.7 10.2 75 2.3 CALM 0 2 0 1 1016.4 1016.4 0.0
28/09:00pm 14.5 13.0 9.1 70 2.7 NNE 7 11 4 6 1016.6 1016.6 0.0
28/08:30pm 17.3 15.4 10.4 64 3.7 ESE 11 11 6 6 1016.4 1016.4 0.0
28/08:00pm 17.9 16.3 11.7 67 3.4 SE 11 13 6 7 1016.0 1016.0 0.0
28/07:30pm 18.9 16.8 11.0 60 4.3 SE 13 15 7 8 1015.5 1015.5 0.0
28/07:00pm 19.5 17.7 11.0 58 4.6 SSE 11 17 6 9 1015.0 1015.0 0.0
28/06:30pm 21.4 18.4 7.6 41 7.1 NNE 13 19 7 10 1014.6 1014.6 0.0
28/06:00pm 21.8 18.9 8.0 41 7.2 NNE 13 19 7 10 1014.4 1014.4 0.0
28/05:30pm 24.7 20.3 5.0 28 9.9 N 17 22 9 12 1014.2 1014.2 0.0
28/05:00pm 25.4 21.1 5.1 27 10.3 N 17 28 9 15 1014.2 1014.2 0.0
28/04:30pm 26.2 20.8 4.6 25 10.9 N 22 30 12 16 1014.3 1014.3 0.0
28/04:00pm 26.6 21.2 4.4 24 11.2 N 22 32 12 17 1014.4 1014.4 0.0
28/03:30pm 26.6 20.8 4.4 24 11.2 N 24 32 13 17 1014.4 1014.4 0.0
28/03:00pm 26.8 22.2 5.7 26 10.9 N 19 28 10 15 1014.7 1014.7 0.0
28/02:30pm 26.5 21.1 4.3 24 11.2 N 22 33 12 18 1015.1 1015.1 0.0
28/02:00pm 25.9 21.4 7.0 30 9.9 NNE 20 32 11 17 1015.8 1015.8 0.0
28/01:30pm 25.9 21.7 8.4 33 9.4 NE 20 28 11 15 1016.3 1016.3 0.0
28/01:00pm 25.6 21.8 9.0 35 9.0 N 19 32 10 17 1017.0 1017.0 0.0
28/12:30pm 24.2 20.3 6.9 33 9.0 NE 17 33 9 18 1017.7 1017.7 0.0
28/12:00pm 24.0 20.8 8.4 37 8.3 NE 15 28 8 15 1018.4 1018.4 0.0
28/11:30am 23.0 20.0 7.5 37 8.1 NNE 13 20 7 11 1019.2 1019.2 0.0
28/11:00am 22.6 20.5 9.7 44 7.0 NE 11 19 6 10 1020.0 1020.0 0.0
28/10:30am 21.2 20.3 11.5 54 5.4 NNE 7 13 4 7 1020.6 1020.6 0.0
28/10:00am 19.7 19.3 12.5 63 4.0 NNE 6 9 3 5 1021.2 1021.2 0.0
28/09:30am 17.4 16.7 11.4 68 3.3 N 6 9 3 5 1021.7 1021.7 0.0
28/09:00am 15.5 14.4 10.7 73 2.5 WNW 7 9 4 5 1022.0 1022.0 0.0
28/08:30am 14.4 14.2 10.4 77 2.1 SSE 2 7 1 4 1021.9 1021.9 0.0
28/08:00am 12.3 12.5 10.5 89 0.9 CALM 0 0 0 0 1022.0 1022.0 0.0
28/07:30am 11.0 11.1 10.1 94 0.5 CALM 0 0 0 0 1022.1 1022.1 0.0
28/07:00am 10.3 10.4 10.0 98 0.2 CALM 0 0 0 0 1022.0 1022.0 0.0
28/06:56am 9.8 9.7 9.5 98 0.1 CALM 0 0 0 0 1022.0 1022.0 0.0
28/06:46am 8.8 8.5 8.5 98 0.1 CALM 0 0 0 0 1022.1 1022.1 0.0
28/06:30am 8.2 7.7 7.9 98 0.1 CALM 0 0 0 0 1022.1 1022.1 0.0
28/06:25am 7.9 7.3 7.6 98 0.1 CALM 0 0 0 0 1022.0 1022.0 0.0
28/06:18am 7.7 7.1 7.4 98 0.1 CALM 0 0 0 0 1021.9 1021.9 0.0
28/06:00am 7.5 6.9 7.2 98 0.1 CALM 0 0 0 0 1021.9 1021.9 0.0
28/05:58am 7.5 6.9 7.2 98 0.1 CALM 0 0 0 0 1021.9 1021.9 0.0
28/05:55am 7.6 7.0 7.3 98 0.1 CALM 0 0 0 0 1021.8 1021.8 0.0
28/05:54am 7.6 7.0 7.3 98 0.1 CALM 0 0 0 0 1021.8 1021.8 0.0
28/05:30am 7.9 7.3 7.6 98 0.1 CALM 0 0 0 0 1021.6 1021.6 0.0
28/05:02am 7.6 7.0 7.3 98 0.1 CALM 0 0 0 0 1021.5 1021.5 0.0
28/05:00am 7.5 6.9 7.2 98 0.1 CALM 0 0 0 0 1021.5 1021.5 0.0
28/04:44am 7.2 6.5 6.9 98 0.1 CALM 0 0 0 0 1021.3 1021.3 0.0
28/04:39am 6.9 6.1 6.5 97 0.2 CALM 0 0 0 0 1021.3 1021.3 0.0
28/04:31am 7.3 6.6 7.0 98 0.1 CALM 0 0 0 0 1021.1 1021.1 0.0
28/04:30am 7.3 6.6 7.0 98 0.1 CALM 0 0 0 0 1021.2 1021.2 0.0
28/04:27am 7.4 6.7 7.1 98 0.1 CALM 0 0 0 0 1021.2 1021.2 0.0
28/04:03am 7.5 6.8 7.1 97 0.2 CALM 0 0 0 0 1021.2 1021.2 0.0
28/04:00am 7.7 7.0 7.1 96 0.3 CALM 0 0 0 0 1021.1 1021.1 0.0
28/03:30am 8.7 8.0 8.4 98 0.1 W 2 6 1 3 1021.0 1021.0 0.0
28/03:00am 9.0 8.3 8.7 98 0.1 W 2 7 1 4 1021.3 1021.3 0.0
28/02:36am 9.2 9.0 8.9 98 0.1 CALM 0 0 0 0 1021.5 1021.5 0.0
28/02:30am 9.5 9.3 9.2 98 0.1 CALM 0 0 0 0 1021.5 1021.5 0.0
28/02:23am 9.1 8.8 8.8 98 0.1 CALM 0 0 0 0 1021.6 1021.6 0.0
28/02:11am 9.1 8.8 8.8 98 0.1 CALM 0 0 0 0 1021.7 1021.7 0.0

Other Formats:

Comma delimited format used in spreadsheet applications
http://www.bom.gov.au/fwo/IDN60801/IDN60801.95753.axf

JavaScript Object Notation format (JSON) in row-major order
http://www.bom.gov.au/fwo/IDN60801/IDN60801.95753.json